sensor_id;sensor_type;location;lat;lon;timestamp;temperature;humidity
42097;DHT22;27754;45.414;11.084;2023-04-25T00:02:14;14.00;76.20
42097;DHT22;27754;45.414;11.084;2023-04-25T00:04:42;14.00;76.20
42097;DHT22;27754;45.414;11.084;2023-04-25T00:07:09;14.10;76.10
42097;DHT22;27754;45.414;11.084;2023-04-25T00:09:37;14.10;75.90
42097;DHT22;27754;45.414;11.084;2023-04-25T00:12:04;14.10;75.80
42097;DHT22;27754;45.414;11.084;2023-04-25T00:14:31;14.10;76.10
42097;DHT22;27754;45.414;11.084;2023-04-25T00:17:01;14.10;76.00
42097;DHT22;27754;45.414;11.084;2023-04-25T00:19:28;14.10;76.00
42097;DHT22;27754;45.414;11.084;2023-04-25T00:21:55;14.10;76.10
42097;DHT22;27754;45.414;11.084;2023-04-25T00:24:22;14.10;75.80
42097;DHT22;27754;45.414;11.084;2023-04-25T00:26:49;14.10;75.30
42097;DHT22;27754;45.414;11.084;2023-04-25T00:29:16;14.20;75.50
42097;DHT22;27754;45.414;11.084;2023-04-25T00:31:43;14.20;74.90
42097;DHT22;27754;45.414;11.084;2023-04-25T00:34:10;14.20;74.70
42097;DHT22;27754;45.414;11.084;2023-04-25T00:36:37;14.20;74.80
42097;DHT22;27754;45.414;11.084;2023-04-25T00:39:04;14.20;73.90
42097;DHT22;27754;45.414;11.084;2023-04-25T00:41:32;14.30;73.00
42097;DHT22;27754;45.414;11.084;2023-04-25T00:44:00;14.40;73.00
42097;DHT22;27754;45.414;11.084;2023-04-25T00:46:27;14.30;73.70
42097;DHT22;27754;45.414;11.084;2023-04-25T00:48:54;14.40;73.00
42097;DHT22;27754;45.414;11.084;2023-04-25T00:51:21;14.30;73.70
42097;DHT22;27754;45.414;11.084;2023-04-25T00:53:49;14.30;74.40
42097;DHT22;27754;45.414;11.084;2023-04-25T00:56:17;14.20;74.00
42097;DHT22;27754;45.414;11.084;2023-04-25T00:58:44;14.30;74.00
42097;DHT22;27754;45.414;11.084;2023-04-25T01:01:12;14.20;74.00
42097;DHT22;27754;45.414;11.084;2023-04-25T01:03:40;14.20;74.10
42097;DHT22;27754;45.414;11.084;2023-04-25T01:06:09;14.20;74.50
42097;DHT22;27754;45.414;11.084;2023-04-25T01:08:38;14.20;75.20
42097;DHT22;27754;45.414;11.084;2023-04-25T01:11:05;14.00;75.50
42097;DHT22;27754;45.414;11.084;2023-04-25T01:13:32;13.90;76.30
42097;DHT22;27754;45.414;11.084;2023-04-25T01:16:00;13.90;76.30
42097;DHT22;27754;45.414;11.084;2023-04-25T01:18:28;13.80;76.70
42097;DHT22;27754;45.414;11.084;2023-04-25T01:20:55;13.80;77.10
42097;DHT22;27754;45.414;11.084;2023-04-25T01:23:23;13.70;77.10
42097;DHT22;27754;45.414;11.084;2023-04-25T01:25:51;13.70;77.30
42097;DHT22;27754;45.414;11.084;2023-04-25T01:28:18;13.70;77.50
42097;DHT22;27754;45.414;11.084;2023-04-25T01:30:46;13.70;77.20
42097;DHT22;27754;45.414;11.084;2023-04-25T01:33:14;13.70;76.60
42097;DHT22;27754;45.414;11.084;2023-04-25T01:35:42;13.70;76.70
42097;DHT22;27754;45.414;11.084;2023-04-25T01:38:10;13.70;77.10
42097;DHT22;27754;45.414;11.084;2023-04-25T01:40:39;13.60;77.10
42097;DHT22;27754;45.414;11.084;2023-04-25T01:43:07;13.50;77.70
42097;DHT22;27754;45.414;11.084;2023-04-25T01:45:39;13.50;77.10
42097;DHT22;27754;45.414;11.084;2023-04-25T01:48:13;13.60;76.50
42097;DHT22;27754;45.414;11.084;2023-04-25T01:50:43;13.60;76.20
42097;DHT22;27754;45.414;11.084;2023-04-25T01:53:13;13.70;75.00
42097;DHT22;27754;45.414;11.084;2023-04-25T01:55:42;13.80;74.70
42097;DHT22;27754;45.414;11.084;2023-04-25T01:58:13;13.90;73.90
42097;DHT22;27754;45.414;11.084;2023-04-25T02:00:58;13.90;73.70
42097;DHT22;27754;45.414;11.084;2023-04-25T02:03:31;14.00;72.70
42097;DHT22;27754;45.414;11.084;2023-04-25T02:05:59;14.00;72.60
42097;DHT22;27754;45.414;11.084;2023-04-25T02:08:28;14.00;72.80
42097;DHT22;27754;45.414;11.084;2023-04-25T02:10:55;14.10;73.00
42097;DHT22;27754;45.414;11.084;2023-04-25T02:13:23;14.10;72.40
42097;DHT22;27754;45.414;11.084;2023-04-25T02:15:59;13.90;73.20
42097;DHT22;27754;45.414;11.084;2023-04-25T02:18:26;13.90;73.30
42097;DHT22;27754;45.414;11.084;2023-04-25T02:20:54;13.90;73.80
42097;DHT22;27754;45.414;11.084;2023-04-25T02:23:20;13.90;73.30
42097;DHT22;27754;45.414;11.084;2023-04-25T02:25:48;13.90;73.50
42097;DHT22;27754;45.414;11.084;2023-04-25T02:28:15;13.90;73.50
42097;DHT22;27754;45.414;11.084;2023-04-25T02:30:42;13.90;73.50
42097;DHT22;27754;45.414;11.084;2023-04-25T02:33:09;13.90;73.00
42097;DHT22;27754;45.414;11.084;2023-04-25T02:35:36;13.90;73.10
42097;DHT22;27754;45.414;11.084;2023-04-25T02:38:03;13.90;72.80
42097;DHT22;27754;45.414;11.084;2023-04-25T02:40:29;13.90;72.00
42097;DHT22;27754;45.414;11.084;2023-04-25T02:42:56;13.90;72.10
42097;DHT22;27754;45.414;11.084;2023-04-25T02:45:25;13.90;72.10
42097;DHT22;27754;45.414;11.084;2023-04-25T02:47:52;14.00;71.30
42097;DHT22;27754;45.414;11.084;2023-04-25T02:50:19;14.00;71.20
42097;DHT22;27754;45.414;11.084;2023-04-25T02:52:46;14.00;71.40
42097;DHT22;27754;45.414;11.084;2023-04-25T02:55:18;14.00;71.30
42097;DHT22;27754;45.414;11.084;2023-04-25T02:57:46;14.10;70.90
42097;DHT22;27754;45.414;11.084;2023-04-25T03:00:21;14.00;71.20
42097;DHT22;27754;45.414;11.084;2023-04-25T03:02:48;14.10;71.00
42097;DHT22;27754;45.414;11.084;2023-04-25T03:05:16;14.10;70.80
42097;DHT22;27754;45.414;11.084;2023-04-25T03:07:43;14.10;70.30
42097;DHT22;27754;45.414;11.084;2023-04-25T03:10:11;14.20;70.30
42097;DHT22;27754;45.414;11.084;2023-04-25T03:12:40;14.10;70.60
42097;DHT22;27754;45.414;11.084;2023-04-25T03:15:07;14.10;70.60
42097;DHT22;27754;45.414;11.084;2023-04-25T03:17:35;14.10;70.10
42097;DHT22;27754;45.414;11.084;2023-04-25T03:20:02;14.10;70.30
42097;DHT22;27754;45.414;11.084;2023-04-25T03:22:31;14.00;71.50
42097;DHT22;27754;45.414;11.084;2023-04-25T03:24:58;14.00;71.80
42097;DHT22;27754;45.414;11.084;2023-04-25T03:27:25;13.90;71.90
42097;DHT22;27754;45.414;11.084;2023-04-25T03:29:51;13.90;72.10
42097;DHT22;27754;45.414;11.084;2023-04-25T03:32:19;13.90;72.90
42097;DHT22;27754;45.414;11.084;2023-04-25T03:34:46;13.90;72.90
42097;DHT22;27754;45.414;11.084;2023-04-25T03:37:13;13.80;72.70
42097;DHT22;27754;45.414;11.084;2023-04-25T03:39:40;13.90;73.10
42097;DHT22;27754;45.414;11.084;2023-04-25T03:42:07;13.90;72.30
42097;DHT22;27754;45.414;11.084;2023-04-25T03:44:34;13.90;71.90
42097;DHT22;27754;45.414;11.084;2023-04-25T03:47:01;13.90;71.40
42097;DHT22;27754;45.414;11.084;2023-04-25T03:49:29;14.00;71.40
42097;DHT22;27754;45.414;11.084;2023-04-25T03:51:59;13.90;71.70
42097;DHT22;27754;45.414;11.084;2023-04-25T03:54:32;13.90;71.80
42097;DHT22;27754;45.414;11.084;2023-04-25T03:57:05;13.80;71.90
42097;DHT22;27754;45.414;11.084;2023-04-25T03:59:35;13.80;71.60
42097;DHT22;27754;45.414;11.084;2023-04-25T04:02:03;13.80;72.30
42097;DHT22;27754;45.414;11.084;2023-04-25T04:04:31;13.80;71.60
42097;DHT22;27754;45.414;11.084;2023-04-25T04:07:00;13.80;72.30
42097;DHT22;27754;45.414;11.084;2023-04-25T04:09:30;13.80;72.20
42097;DHT22;27754;45.414;11.084;2023-04-25T04:11:59;13.80;72.30
42097;DHT22;27754;45.414;11.084;2023-04-25T04:14:30;13.80;72.60
42097;DHT22;27754;45.414;11.084;2023-04-25T04:16:57;13.80;73.20
42097;DHT22;27754;45.414;11.084;2023-04-25T04:19:25;13.80;73.20
42097;DHT22;27754;45.414;11.084;2023-04-25T04:22:03;13.80;72.60
42097;DHT22;27754;45.414;11.084;2023-04-25T04:24:31;13.90;72.20
42097;DHT22;27754;45.414;11.084;2023-04-25T04:27:01;14.00;72.00
42097;DHT22;27754;45.414;11.084;2023-04-25T04:29:45;13.90;71.90
42097;DHT22;27754;45.414;11.084;2023-04-25T04:32:24;14.00;72.20
42097;DHT22;27754;45.414;11.084;2023-04-25T04:34:53;14.00;72.20
42097;DHT22;27754;45.414;11.084;2023-04-25T04:37:22;13.90;72.30
42097;DHT22;27754;45.414;11.084;2023-04-25T04:39:49;14.00;72.60
42097;DHT22;27754;45.414;11.084;2023-04-25T04:42:38;13.90;73.10
42097;DHT22;27754;45.414;11.084;2023-04-25T04:45:14;13.80;73.20
42097;DHT22;27754;45.414;11.084;2023-04-25T04:47:55;13.80;73.70
42097;DHT22;27754;45.414;11.084;2023-04-25T04:50:42;13.80;73.90
42097;DHT22;27754;45.414;11.084;2023-04-25T04:53:43;13.70;74.00
42097;DHT22;27754;45.414;11.084;2023-04-25T04:56:19;13.70;73.90
42097;DHT22;27754;45.414;11.084;2023-04-25T04:59:15;13.60;74.10
42097;DHT22;27754;45.414;11.084;2023-04-25T05:01:52;13.60;74.00
42097;DHT22;27754;45.414;11.084;2023-04-25T05:04:35;13.50;74.70
42097;DHT22;27754;45.414;11.084;2023-04-25T05:07:23;13.40;74.70
42097;DHT22;27754;45.414;11.084;2023-04-25T05:10:09;13.40;75.20
42097;DHT22;27754;45.414;11.084;2023-04-25T05:12:37;13.40;75.60
42097;DHT22;27754;45.414;11.084;2023-04-25T05:15:07;13.40;75.90
42097;DHT22;27754;45.414;11.084;2023-04-25T05:17:54;13.40;76.40
42097;DHT22;27754;45.414;11.084;2023-04-25T05:20:39;13.40;76.50
42097;DHT22;27754;45.414;11.084;2023-04-25T05:23:35;13.40;75.60
42097;DHT22;27754;45.414;11.084;2023-04-25T05:26:10;13.60;74.70
42097;DHT22;27754;45.414;11.084;2023-04-25T05:29:00;13.60;73.60
42097;DHT22;27754;45.414;11.084;2023-04-25T05:31:44;13.30;72.60
42097;DHT22;27754;45.414;11.084;2023-04-25T05:34:14;11.80;74.50
42097;DHT22;27754;45.414;11.084;2023-04-25T05:36:56;10.10;76.00
42097;DHT22;27754;45.414;11.084;2023-04-25T05:39:24;8.90;80.60
42097;DHT22;27754;45.414;11.084;2023-04-25T05:42:14;8.70;82.90
42097;DHT22;27754;45.414;11.084;2023-04-25T05:45:06;8.70;84.80
42097;DHT22;27754;45.414;11.084;2023-04-25T05:47:41;8.70;86.00
42097;DHT22;27754;45.414;11.084;2023-04-25T05:50:22;8.70;87.10
42097;DHT22;27754;45.414;11.084;2023-04-25T05:53:01;8.90;88.00
42097;DHT22;27754;45.414;11.084;2023-04-25T05:55:37;9.10;88.10
42097;DHT22;27754;45.414;11.084;2023-04-25T05:58:20;9.20;88.20
42097;DHT22;27754;45.414;11.084;2023-04-25T06:00:48;9.30;88.40
42097;DHT22;27754;45.414;11.084;2023-04-25T06:03:16;9.40;88.70
42097;DHT22;27754;45.414;11.084;2023-04-25T06:05:47;9.70;87.50
42097;DHT22;27754;45.414;11.084;2023-04-25T06:08:14;10.00;86.80
42097;DHT22;27754;45.414;11.084;2023-04-25T06:10:41;10.40;85.70
42097;DHT22;27754;45.414;11.084;2023-04-25T06:13:08;10.60;84.90
42097;DHT22;27754;45.414;11.084;2023-04-25T06:15:36;10.60;85.00
42097;DHT22;27754;45.414;11.084;2023-04-25T06:18:03;10.70;85.30
42097;DHT22;27754;45.414;11.084;2023-04-25T06:20:30;10.80;84.80
42097;DHT22;27754;45.414;11.084;2023-04-25T06:22:59;10.80;84.70
42097;DHT22;27754;45.414;11.084;2023-04-25T06:25:41;10.90;84.20
42097;DHT22;27754;45.414;11.084;2023-04-25T06:28:08;10.90;84.50
42097;DHT22;27754;45.414;11.084;2023-04-25T06:30:35;10.90;84.40
42097;DHT22;27754;45.414;11.084;2023-04-25T06:33:06;11.00;83.40
42097;DHT22;27754;45.414;11.084;2023-04-25T06:35:35;11.10;83.30
42097;DHT22;27754;45.414;11.084;2023-04-25T06:38:04;11.20;83.00
42097;DHT22;27754;45.414;11.084;2023-04-25T06:40:31;11.10;83.30
42097;DHT22;27754;45.414;11.084;2023-04-25T06:42:58;11.20;83.60
42097;DHT22;27754;45.414;11.084;2023-04-25T06:45:54;11.10;83.80
42097;DHT22;27754;45.414;11.084;2023-04-25T06:48:24;11.20;83.70
42097;DHT22;27754;45.414;11.084;2023-04-25T06:50:52;11.20;84.10
42097;DHT22;27754;45.414;11.084;2023-04-25T06:53:19;11.20;84.60
42097;DHT22;27754;45.414;11.084;2023-04-25T06:55:51;11.30;83.70
42097;DHT22;27754;45.414;11.084;2023-04-25T06:58:21;11.20;83.60
42097;DHT22;27754;45.414;11.084;2023-04-25T07:01:06;11.30;83.80
42097;DHT22;27754;45.414;11.084;2023-04-25T07:03:34;11.30;83.40
42097;DHT22;27754;45.414;11.084;2023-04-25T07:06:06;11.40;83.70
42097;DHT22;27754;45.414;11.084;2023-04-25T07:08:33;11.40;83.90
42097;DHT22;27754;45.414;11.084;2023-04-25T07:11:00;11.40;84.50
42097;DHT22;27754;45.414;11.084;2023-04-25T07:13:27;11.50;84.50
42097;DHT22;27754;45.414;11.084;2023-04-25T07:15:54;11.70;84.50
42097;DHT22;27754;45.414;11.084;2023-04-25T07:18:23;11.90;84.40
42097;DHT22;27754;45.414;11.084;2023-04-25T07:20:51;12.20;84.60
42097;DHT22;27754;45.414;11.084;2023-04-25T07:23:18;12.40;83.90
42097;DHT22;27754;45.414;11.084;2023-04-25T07:25:46;12.40;82.80
42097;DHT22;27754;45.414;11.084;2023-04-25T07:28:18;12.50;83.00
42097;DHT22;27754;45.414;11.084;2023-04-25T07:30:46;12.30;80.30
42097;DHT22;27754;45.414;11.084;2023-04-25T07:33:13;12.20;79.00
42097;DHT22;27754;45.414;11.084;2023-04-25T07:35:40;12.00;79.40
42097;DHT22;27754;45.414;11.084;2023-04-25T07:38:07;12.00;79.10
42097;DHT22;27754;45.414;11.084;2023-04-25T07:40:35;11.90;79.70
42097;DHT22;27754;45.414;11.084;2023-04-25T07:43:06;11.90;79.20
42097;DHT22;27754;45.414;11.084;2023-04-25T07:45:45;11.80;79.00
42097;DHT22;27754;45.414;11.084;2023-04-25T07:48:17;11.80;79.10
42097;DHT22;27754;45.414;11.084;2023-04-25T07:50:46;11.80;80.00
42097;DHT22;27754;45.414;11.084;2023-04-25T07:53:13;11.70;79.50
42097;DHT22;27754;45.414;11.084;2023-04-25T07:55:50;11.80;80.20
42097;DHT22;27754;45.414;11.084;2023-04-25T07:58:18;11.80;80.30
42097;DHT22;27754;45.414;11.084;2023-04-25T08:00:53;11.80;80.00
42097;DHT22;27754;45.414;11.084;2023-04-25T08:03:46;12.00;80.70
42097;DHT22;27754;45.414;11.084;2023-04-25T08:06:20;12.00;80.40
42097;DHT22;27754;45.414;11.084;2023-04-25T08:09:11;12.10;80.20
42097;DHT22;27754;45.414;11.084;2023-04-25T08:11:41;12.10;80.20
42097;DHT22;27754;45.414;11.084;2023-04-25T08:14:11;12.00;80.10
42097;DHT22;27754;45.414;11.084;2023-04-25T08:16:39;12.00;80.40
42097;DHT22;27754;45.414;11.084;2023-04-25T08:19:06;11.90;79.40
42097;DHT22;27754;45.414;11.084;2023-04-25T08:21:34;11.90;79.90
42097;DHT22;27754;45.414;11.084;2023-04-25T08:24:05;11.90;79.10
42097;DHT22;27754;45.414;11.084;2023-04-25T08:26:35;12.10;78.90
42097;DHT22;27754;45.414;11.084;2023-04-25T08:29:04;12.20;80.00
42097;DHT22;27754;45.414;11.084;2023-04-25T08:31:34;12.30;77.80
42097;DHT22;27754;45.414;11.084;2023-04-25T08:34:03;12.50;78.00
42097;DHT22;27754;45.414;11.084;2023-04-25T08:36:37;12.60;76.20
42097;DHT22;27754;45.414;11.084;2023-04-25T08:39:26;13.30;76.90
42097;DHT22;27754;45.414;11.084;2023-04-25T08:42:31;13.40;74.20
42097;DHT22;27754;45.414;11.084;2023-04-25T08:45:02;13.70;74.00
42097;DHT22;27754;45.414;11.084;2023-04-25T08:47:38;13.80;74.60
42097;DHT22;27754;45.414;11.084;2023-04-25T08:50:06;14.00;72.80
42097;DHT22;27754;45.414;11.084;2023-04-25T08:52:39;14.20;73.80
42097;DHT22;27754;45.414;11.084;2023-04-25T08:55:09;14.20;72.30
42097;DHT22;27754;45.414;11.084;2023-04-25T08:57:37;14.10;71.90
42097;DHT22;27754;45.414;11.084;2023-04-25T09:00:05;14.00;71.40
42097;DHT22;27754;45.414;11.084;2023-04-25T09:02:36;14.30;72.70
42097;DHT22;27754;45.414;11.084;2023-04-25T09:05:04;14.20;70.70
42097;DHT22;27754;45.414;11.084;2023-04-25T09:07:31;14.40;74.00
42097;DHT22;27754;45.414;11.084;2023-04-25T09:09:58;14.50;70.30
42097;DHT22;27754;45.414;11.084;2023-04-25T09:12:35;14.40;71.70
42097;DHT22;27754;45.414;11.084;2023-04-25T09:15:10;14.50;69.80
42097;DHT22;27754;45.414;11.084;2023-04-25T09:17:57;14.50;71.30
42097;DHT22;27754;45.414;11.084;2023-04-25T09:20:29;14.70;71.00
42097;DHT22;27754;45.414;11.084;2023-04-25T09:23:04;14.90;70.50
42097;DHT22;27754;45.414;11.084;2023-04-25T09:25:38;14.80;68.90
42097;DHT22;27754;45.414;11.084;2023-04-25T09:28:10;14.80;70.30
42097;DHT22;27754;45.414;11.084;2023-04-25T09:30:37;14.90;70.10
42097;DHT22;27754;45.414;11.084;2023-04-25T09:33:20;15.20;69.70
42097;DHT22;27754;45.414;11.084;2023-04-25T09:35:53;15.10;68.30
42097;DHT22;27754;45.414;11.084;2023-04-25T09:38:43;14.90;68.20
42097;DHT22;27754;45.414;11.084;2023-04-25T09:41:25;15.10;69.40
42097;DHT22;27754;45.414;11.084;2023-04-25T09:43:57;15.20;69.80
42097;DHT22;27754;45.414;11.084;2023-04-25T09:46:34;15.40;69.70
42097;DHT22;27754;45.414;11.084;2023-04-25T09:49:16;15.50;70.00
42097;DHT22;27754;45.414;11.084;2023-04-25T09:52:20;15.40;69.20
42097;DHT22;27754;45.414;11.084;2023-04-25T09:55:01;15.60;71.60
42097;DHT22;27754;45.414;11.084;2023-04-25T09:57:32;15.80;69.50
42097;DHT22;27754;45.414;11.084;2023-04-25T10:00:01;15.80;70.30
42097;DHT22;27754;45.414;11.084;2023-04-25T10:02:42;15.70;71.10
42097;DHT22;27754;45.414;11.084;2023-04-25T10:05:15;15.90;70.60
42097;DHT22;27754;45.414;11.084;2023-04-25T10:07:42;16.00;68.70
42097;DHT22;27754;45.414;11.084;2023-04-25T10:10:15;16.10;67.80
42097;DHT22;27754;45.414;11.084;2023-04-25T10:12:43;15.90;67.40
42097;DHT22;27754;45.414;11.084;2023-04-25T10:15:12;16.00;67.20
42097;DHT22;27754;45.414;11.084;2023-04-25T10:17:40;15.60;66.00
42097;DHT22;27754;45.414;11.084;2023-04-25T10:20:08;15.60;67.30
42097;DHT22;27754;45.414;11.084;2023-04-25T10:22:41;15.80;67.60
42097;DHT22;27754;45.414;11.084;2023-04-25T10:25:08;15.70;67.60
42097;DHT22;27754;45.414;11.084;2023-04-25T10:27:36;15.80;67.70
42097;DHT22;27754;45.414;11.084;2023-04-25T10:30:08;16.00;69.00
42097;DHT22;27754;45.414;11.084;2023-04-25T10:32:38;16.40;67.40
42097;DHT22;27754;45.414;11.084;2023-04-25T10:35:19;16.30;66.10
42097;DHT22;27754;45.414;11.084;2023-04-25T10:38:09;16.50;67.50
42097;DHT22;27754;45.414;11.084;2023-04-25T10:40:37;16.60;65.10
42097;DHT22;27754;45.414;11.084;2023-04-25T10:46:16;16.70;67.70
42097;DHT22;27754;45.414;11.084;2023-04-25T10:48:48;16.70;68.10
42097;DHT22;27754;45.414;11.084;2023-04-25T10:51:20;16.70;67.10
42097;DHT22;27754;45.414;11.084;2023-04-25T10:54:06;16.50;67.10
42097;DHT22;27754;45.414;11.084;2023-04-25T10:56:42;16.80;69.20
42097;DHT22;27754;45.414;11.084;2023-04-25T11:01:43;16.90;67.80
42097;DHT22;27754;45.414;11.084;2023-04-25T11:04:43;16.90;68.40
42097;DHT22;27754;45.414;11.084;2023-04-25T11:07:33;17.00;66.80
42097;DHT22;27754;45.414;11.084;2023-04-25T11:10:02;17.00;67.90
42097;DHT22;27754;45.414;11.084;2023-04-25T11:12:31;16.90;67.60
42097;DHT22;27754;45.414;11.084;2023-04-25T11:15:03;16.90;66.20
42097;DHT22;27754;45.414;11.084;2023-04-25T11:17:30;16.90;65.60
42097;DHT22;27754;45.414;11.084;2023-04-25T11:19:57;16.90;66.30
42097;DHT22;27754;45.414;11.084;2023-04-25T11:22:26;17.00;66.90
42097;DHT22;27754;45.414;11.084;2023-04-25T11:24:53;17.10;66.80
42097;DHT22;27754;45.414;11.084;2023-04-25T11:27:21;16.90;67.10
42097;DHT22;27754;45.414;11.084;2023-04-25T11:29:48;17.00;67.10
42097;DHT22;27754;45.414;11.084;2023-04-25T11:32:16;17.00;66.90
42097;DHT22;27754;45.414;11.084;2023-04-25T11:34:46;17.20;66.80
42097;DHT22;27754;45.414;11.084;2023-04-25T11:37:14;17.30;66.60
42097;DHT22;27754;45.414;11.084;2023-04-25T11:39:45;17.20;67.70
42097;DHT22;27754;45.414;11.084;2023-04-25T11:42:14;17.10;65.70
42097;DHT22;27754;45.414;11.084;2023-04-25T11:44:41;17.20;65.60
42097;DHT22;27754;45.414;11.084;2023-04-25T11:47:08;17.10;66.90
42097;DHT22;27754;45.414;11.084;2023-04-25T11:49:35;17.10;67.90
42097;DHT22;27754;45.414;11.084;2023-04-25T11:52:03;17.30;67.00
42097;DHT22;27754;45.414;11.084;2023-04-25T11:54:35;17.50;66.70
42097;DHT22;27754;45.414;11.084;2023-04-25T11:57:03;17.90;66.00
42097;DHT22;27754;45.414;11.084;2023-04-25T11:59:30;18.00;65.10
42097;DHT22;27754;45.414;11.084;2023-04-25T12:01:57;18.10;64.50
42097;DHT22;27754;45.414;11.084;2023-04-25T12:04:25;18.10;63.60
42097;DHT22;27754;45.414;11.084;2023-04-25T12:06:54;17.60;65.00
42097;DHT22;27754;45.414;11.084;2023-04-25T12:09:31;17.40;63.60
42097;DHT22;27754;45.414;11.084;2023-04-25T12:12:00;17.40;64.10
42097;DHT22;27754;45.414;11.084;2023-04-25T12:14:32;17.30;64.70
42097;DHT22;27754;45.414;11.084;2023-04-25T12:17:01;17.30;64.00
42097;DHT22;27754;45.414;11.084;2023-04-25T12:19:35;17.10;64.90
42097;DHT22;27754;45.414;11.084;2023-04-25T12:22:03;17.00;66.70
42097;DHT22;27754;45.414;11.084;2023-04-25T12:24:33;17.00;67.10
42097;DHT22;27754;45.414;11.084;2023-04-25T12:27:06;16.90;66.00
42097;DHT22;27754;45.414;11.084;2023-04-25T12:29:35;16.70;67.80
42097;DHT22;27754;45.414;11.084;2023-04-25T12:32:05;16.70;69.70
42097;DHT22;27754;45.414;11.084;2023-04-25T12:34:32;16.60;70.20
42097;DHT22;27754;45.414;11.084;2023-04-25T12:37:01;16.40;71.10
42097;DHT22;27754;45.414;11.084;2023-04-25T12:39:28;16.30;72.30
42097;DHT22;27754;45.414;11.084;2023-04-25T12:41:55;15.80;71.50
42097;DHT22;27754;45.414;11.084;2023-04-25T12:44:22;15.50;72.80
42097;DHT22;27754;45.414;11.084;2023-04-25T12:46:49;15.40;70.60
42097;DHT22;27754;45.414;11.084;2023-04-25T12:49:17;15.10;72.90
42097;DHT22;27754;45.414;11.084;2023-04-25T12:51:45;14.80;74.00
42097;DHT22;27754;45.414;11.084;2023-04-25T12:54:12;14.70;74.20
42097;DHT22;27754;45.414;11.084;2023-04-25T12:56:41;14.40;75.50
42097;DHT22;27754;45.414;11.084;2023-04-25T12:59:08;14.40;74.60
42097;DHT22;27754;45.414;11.084;2023-04-25T13:01:36;14.30;74.40
42097;DHT22;27754;45.414;11.084;2023-04-25T13:04:03;14.30;75.10
42097;DHT22;27754;45.414;11.084;2023-04-25T13:06:30;14.10;74.80
42097;DHT22;27754;45.414;11.084;2023-04-25T13:08:57;14.00;76.30
42097;DHT22;27754;45.414;11.084;2023-04-25T13:11:24;13.90;77.90
42097;DHT22;27754;45.414;11.084;2023-04-25T13:13:51;13.90;79.60
42097;DHT22;27754;45.414;11.084;2023-04-25T13:16:19;13.60;80.60
42097;DHT22;27754;45.414;11.084;2023-04-25T13:18:48;13.60;82.10
42097;DHT22;27754;45.414;11.084;2023-04-25T13:21:15;13.60;83.00
42097;DHT22;27754;45.414;11.084;2023-04-25T13:23:43;13.50;82.20
42097;DHT22;27754;45.414;11.084;2023-04-25T13:26:11;13.50;82.40
42097;DHT22;27754;45.414;11.084;2023-04-25T13:28:38;13.40;82.70
42097;DHT22;27754;45.414;11.084;2023-04-25T13:31:10;13.20;83.50
42097;DHT22;27754;45.414;11.084;2023-04-25T13:33:37;13.20;82.70
42097;DHT22;27754;45.414;11.084;2023-04-25T13:36:04;13.20;81.70
42097;DHT22;27754;45.414;11.084;2023-04-25T13:38:32;13.20;81.90
42097;DHT22;27754;45.414;11.084;2023-04-25T13:40:58;13.20;82.70
42097;DHT22;27754;45.414;11.084;2023-04-25T13:43:25;13.10;83.30
42097;DHT22;27754;45.414;11.084;2023-04-25T13:45:52;13.20;84.00
42097;DHT22;27754;45.414;11.084;2023-04-25T13:48:19;13.30;83.40
42097;DHT22;27754;45.414;11.084;2023-04-25T13:50:47;13.10;82.40
42097;DHT22;27754;45.414;11.084;2023-04-25T13:53:14;13.30;84.10
42097;DHT22;27754;45.414;11.084;2023-04-25T13:55:41;13.30;84.00
42097;DHT22;27754;45.414;11.084;2023-04-25T13:58:08;13.40;84.80
42097;DHT22;27754;45.414;11.084;2023-04-25T14:00:38;13.60;84.90
42097;DHT22;27754;45.414;11.084;2023-04-25T14:03:06;13.60;84.80
42097;DHT22;27754;45.414;11.084;2023-04-25T14:05:37;13.60;84.80
42097;DHT22;27754;45.414;11.084;2023-04-25T14:08:09;13.70;84.90
42097;DHT22;27754;45.414;11.084;2023-04-25T14:10:36;13.60;84.90
42097;DHT22;27754;45.414;11.084;2023-04-25T14:13:04;13.50;85.00
42097;DHT22;27754;45.414;11.084;2023-04-25T14:15:33;13.40;84.70
42097;DHT22;27754;45.414;11.084;2023-04-25T14:18:01;13.30;85.00
42097;DHT22;27754;45.414;11.084;2023-04-25T14:20:28;13.30;84.90
42097;DHT22;27754;45.414;11.084;2023-04-25T14:22:55;13.20;85.20
42097;DHT22;27754;45.414;11.084;2023-04-25T14:25:24;13.00;85.40
42097;DHT22;27754;45.414;11.084;2023-04-25T14:27:51;12.90;85.50
42097;DHT22;27754;45.414;11.084;2023-04-25T14:30:19;12.90;85.50
42097;DHT22;27754;45.414;11.084;2023-04-25T14:32:48;13.00;84.30
42097;DHT22;27754;45.414;11.084;2023-04-25T14:35:15;13.10;85.10
42097;DHT22;27754;45.414;11.084;2023-04-25T14:37:42;13.20;84.40
42097;DHT22;27754;45.414;11.084;2023-04-25T14:40:09;13.30;84.70
42097;DHT22;27754;45.414;11.084;2023-04-25T14:42:37;13.30;84.50
42097;DHT22;27754;45.414;11.084;2023-04-25T14:45:05;13.40;84.40
42097;DHT22;27754;45.414;11.084;2023-04-25T14:47:35;13.60;84.20
42097;DHT22;27754;45.414;11.084;2023-04-25T14:50:02;13.80;84.60
42097;DHT22;27754;45.414;11.084;2023-04-25T14:52:30;14.10;84.60
42097;DHT22;27754;45.414;11.084;2023-04-25T14:54:58;14.20;85.30
42097;DHT22;27754;45.414;11.084;2023-04-25T14:57:27;14.30;84.90
42097;DHT22;27754;45.414;11.084;2023-04-25T14:59:53;14.20;83.80
42097;DHT22;27754;45.414;11.084;2023-04-25T15:02:21;14.30;83.50
42097;DHT22;27754;45.414;11.084;2023-04-25T15:04:48;14.30;83.50
42097;DHT22;27754;45.414;11.084;2023-04-25T15:07:15;14.40;83.40
42097;DHT22;27754;45.414;11.084;2023-04-25T15:09:44;14.40;83.40
42097;DHT22;27754;45.414;11.084;2023-04-25T15:12:12;14.50;84.00
42097;DHT22;27754;45.414;11.084;2023-04-25T15:14:38;14.60;83.40
42097;DHT22;27754;45.414;11.084;2023-04-25T15:17:06;14.60;83.10
42097;DHT22;27754;45.414;11.084;2023-04-25T15:19:33;14.70;82.70
42097;DHT22;27754;45.414;11.084;2023-04-25T15:22:00;14.70;82.40
42097;DHT22;27754;45.414;11.084;2023-04-25T15:24:30;14.80;81.80
42097;DHT22;27754;45.414;11.084;2023-04-25T15:26:57;14.80;82.00
42097;DHT22;27754;45.414;11.084;2023-04-25T15:29:24;14.80;81.70
42097;DHT22;27754;45.414;11.084;2023-04-25T15:31:53;14.90;81.40
42097;DHT22;27754;45.414;11.084;2023-04-25T15:34:20;15.10;80.90
42097;DHT22;27754;45.414;11.084;2023-04-25T15:36:47;15.20;79.30
42097;DHT22;27754;45.414;11.084;2023-04-25T15:39:14;15.10;78.50
42097;DHT22;27754;45.414;11.084;2023-04-25T15:41:41;15.20;79.20
42097;DHT22;27754;45.414;11.084;2023-04-25T15:44:08;15.30;77.90
42097;DHT22;27754;45.414;11.084;2023-04-25T15:46:37;15.00;76.10